Skip Navigation LinksHome page > Weather > Current weather Skip Navigation Links

Current Weather

New Tokyo International (Narita), Tokyo

For information only: do not use for flight planning or navigation.
Latest weather
Observation time Friday, August 1, 2014 2:00 PM JST
Local time Friday, August 1, 2014 2:43 PM JST
Flight conditions Low Instrument Meteorological Conditions
Winds
Wind direction South (180°)
Winds variable from 150° to 240°
Wind speed 9 mph
Visibility 6.2 mi.
Sky condition
Ceiling 0 ft. broken clouds
Cloud layer broken clouds 0 ft.
Cloud layer few clouds 4,000 ft.
Temperature 91°F
Dewpoint 70°F
Altimeter 29.80 in.Hg
Derived measurements
Relative humidity 49%
Heat index 97°F
Density altitude 2529 ft.
Remarks
No significant changes expected in the next two hours.
METAR RJAA 010500Z 18008KT 150V240 9999 FEW040 BKN/// 33/21 Q1009 NOSIG RMK 1CU040 A2981

Settings

Location code

InnerDrive.Weather 4.0.5294.0 Release CLR 4.0.30319.34014
Copyright ©2014 Inner Drive Technology. All rights reserved. Portions Copyright ©1986-2014 David Braverman.

Find weather

Site navigation


Skip Navigation Links

Place info

Page info

PayPal - The safer, easier way to pay online!

Return home.

Copyright ©2014 Inner Drive Technology. Purveyors of fine, hand-crafted computer software. Page printed 2014-08-01T05:43:50 UTC.